Angola, Indiana
Current Conditions -  °F | °C
As of 6:15 PM on Tuesday 27 Jan 2015 (Local Time) from KANQ Reporting Station
Clear Clear  
Wind Chill: 23°   Ceiling: Unl
Heat Index: 23°   Visibility: 10mi
Dew Point: 10°   Wind: 3mph
Humidity: 59%   Direction: 340°NNW
Pressure: 30.16"   Gusts: NA
Location:  41.63°N, 85°W
Report Text: KANQ 272315Z AUTO 34003KT 10SM CLR M05/M12 A3016 RMK
Loading
Personal Weather Stations






























Interactive Weather Map New forecast layout! Learn more

10-Day Weather Forecast

Advertisements
Track Severe Weather on mobile